sensor_id;sensor_type;location;lat;lon;timestamp;P1;durP1;ratioP1;P2;durP2;ratioP2
62654;SDS011;48717;55.556;37.816;2024-03-06T00:01:13;7.85;;;3.33;;
62654;SDS011;48717;55.556;37.816;2024-03-06T00:03:41;7.05;;;4.22;;
62654;SDS011;48717;55.556;37.816;2024-03-06T00:06:08;9.63;;;4.70;;
62654;SDS011;48717;55.556;37.816;2024-03-06T00:08:35;8.80;;;3.72;;
62654;SDS011;48717;55.556;37.816;2024-03-06T00:11:04;9.35;;;4.30;;
62654;SDS011;48717;55.556;37.816;2024-03-06T00:13:32;13.95;;;6.70;;
62654;SDS011;48717;55.556;37.816;2024-03-06T00:15:59;13.80;;;5.38;;
62654;SDS011;48717;55.556;37.816;2024-03-06T00:18:27;10.68;;;5.47;;
62654;SDS011;48717;55.556;37.816;2024-03-06T00:20:56;9.05;;;4.57;;
62654;SDS011;48717;55.556;37.816;2024-03-06T00:23:23;10.80;;;5.15;;
62654;SDS011;48717;55.556;37.816;2024-03-06T00:25:51;9.88;;;5.07;;
62654;SDS011;48717;55.556;37.816;2024-03-06T00:28:18;8.00;;;4.38;;
62654;SDS011;48717;55.556;37.816;2024-03-06T00:30:46;12.48;;;4.45;;
62654;SDS011;48717;55.556;37.816;2024-03-06T00:33:13;10.10;;;4.05;;
62654;SDS011;48717;55.556;37.816;2024-03-06T00:35:41;8.75;;;3.42;;
62654;SDS011;48717;55.556;37.816;2024-03-06T00:38:09;5.47;;;3.05;;
62654;SDS011;48717;55.556;37.816;2024-03-06T00:40:36;9.77;;;3.60;;
62654;SDS011;48717;55.556;37.816;2024-03-06T00:43:04;9.00;;;3.08;;
62654;SDS011;48717;55.556;37.816;2024-03-06T00:45:32;6.68;;;3.13;;
62654;SDS011;48717;55.556;37.816;2024-03-06T00:47:59;5.20;;;2.63;;
62654;SDS011;48717;55.556;37.816;2024-03-06T00:50:27;7.18;;;2.97;;
62654;SDS011;48717;55.556;37.816;2024-03-06T00:52:54;9.63;;;3.03;;
62654;SDS011;48717;55.556;37.816;2024-03-06T00:55:22;9.23;;;2.83;;
62654;SDS011;48717;55.556;37.816;2024-03-06T00:57:49;4.75;;;2.60;;
62654;SDS011;48717;55.556;37.816;2024-03-06T01:00:17;9.05;;;3.75;;
62654;SDS011;48717;55.556;37.816;2024-03-06T01:02:45;6.35;;;2.92;;
62654;SDS011;48717;55.556;37.816;2024-03-06T01:05:13;5.85;;;2.92;;
62654;SDS011;48717;55.556;37.816;2024-03-06T01:07:40;7.40;;;3.95;;
62654;SDS011;48717;55.556;37.816;2024-03-06T01:10:08;14.52;;;5.72;;
62654;SDS011;48717;55.556;37.816;2024-03-06T01:12:36;13.57;;;5.15;;
62654;SDS011;48717;55.556;37.816;2024-03-06T01:15:03;17.00;;;7.70;;
62654;SDS011;48717;55.556;37.816;2024-03-06T01:17:31;14.68;;;6.82;;
62654;SDS011;48717;55.556;37.816;2024-03-06T01:19:59;11.40;;;5.43;;
62654;SDS011;48717;55.556;37.816;2024-03-06T01:22:28;10.85;;;5.20;;
62654;SDS011;48717;55.556;37.816;2024-03-06T01:24:56;8.80;;;4.10;;
62654;SDS011;48717;55.556;37.816;2024-03-06T01:27:24;9.30;;;4.00;;
62654;SDS011;48717;55.556;37.816;2024-03-06T01:29:51;9.82;;;5.00;;
62654;SDS011;48717;55.556;37.816;2024-03-06T01:32:18;12.18;;;4.82;;
62654;SDS011;48717;55.556;37.816;2024-03-06T01:34:46;4.85;;;3.08;;
62654;SDS011;48717;55.556;37.816;2024-03-06T01:37:13;7.30;;;3.40;;
62654;SDS011;48717;55.556;37.816;2024-03-06T01:39:43;7.28;;;3.50;;
62654;SDS011;48717;55.556;37.816;2024-03-06T01:42:10;7.90;;;3.15;;
62654;SDS011;48717;55.556;37.816;2024-03-06T01:44:38;6.93;;;3.83;;
62654;SDS011;48717;55.556;37.816;2024-03-06T01:47:05;9.60;;;4.85;;
62654;SDS011;48717;55.556;37.816;2024-03-06T01:49:33;11.65;;;4.07;;
62654;SDS011;48717;55.556;37.816;2024-03-06T01:52:12;9.63;;;5.15;;
62654;SDS011;48717;55.556;37.816;2024-03-06T01:54:42;9.73;;;4.90;;
62654;SDS011;48717;55.556;37.816;2024-03-06T01:57:11;11.45;;;5.18;;
62654;SDS011;48717;55.556;37.816;2024-03-06T01:59:42;14.13;;;6.25;;
62654;SDS011;48717;55.556;37.816;2024-03-06T02:02:10;12.55;;;6.07;;
62654;SDS011;48717;55.556;37.816;2024-03-06T02:04:38;12.05;;;6.05;;
62654;SDS011;48717;55.556;37.816;2024-03-06T02:07:08;18.27;;;6.88;;
62654;SDS011;48717;55.556;37.816;2024-03-06T02:09:40;16.80;;;8.57;;
62654;SDS011;48717;55.556;37.816;2024-03-06T02:12:07;19.10;;;9.80;;
62654;SDS011;48717;55.556;37.816;2024-03-06T02:14:38;22.52;;;11.48;;
62654;SDS011;48717;55.556;37.816;2024-03-06T02:17:06;14.32;;;8.30;;
62654;SDS011;48717;55.556;37.816;2024-03-06T02:19:40;11.77;;;5.85;;
62654;SDS011;48717;55.556;37.816;2024-03-06T02:22:10;17.48;;;5.47;;
62654;SDS011;48717;55.556;37.816;2024-03-06T02:24:38;14.02;;;5.65;;
62654;SDS011;48717;55.556;37.816;2024-03-06T02:27:10;15.60;;;4.75;;
62654;SDS011;48717;55.556;37.816;2024-03-06T02:29:37;10.52;;;4.97;;
62654;SDS011;48717;55.556;37.816;2024-03-06T02:32:05;14.80;;;4.72;;
62654;SDS011;48717;55.556;37.816;2024-03-06T02:34:32;9.88;;;4.80;;
62654;SDS011;48717;55.556;37.816;2024-03-06T02:37:00;14.98;;;4.03;;
62654;SDS011;48717;55.556;37.816;2024-03-06T02:39:30;12.55;;;5.95;;
62654;SDS011;48717;55.556;37.816;2024-03-06T02:41:57;10.93;;;4.50;;
62654;SDS011;48717;55.556;37.816;2024-03-06T02:44:24;12.25;;;5.53;;
62654;SDS011;48717;55.556;37.816;2024-03-06T02:46:52;9.05;;;4.47;;
62654;SDS011;48717;55.556;37.816;2024-03-06T02:49:19;9.80;;;5.43;;
62654;SDS011;48717;55.556;37.816;2024-03-06T02:51:47;9.55;;;4.75;;
62654;SDS011;48717;55.556;37.816;2024-03-06T02:54:15;8.32;;;4.75;;
62654;SDS011;48717;55.556;37.816;2024-03-06T02:56:42;10.80;;;4.07;;
62654;SDS011;48717;55.556;37.816;2024-03-06T02:59:10;7.72;;;3.47;;
62654;SDS011;48717;55.556;37.816;2024-03-06T03:01:37;8.32;;;3.28;;
62654;SDS011;48717;55.556;37.816;2024-03-06T03:04:06;6.82;;;3.80;;
62654;SDS011;48717;55.556;37.816;2024-03-06T03:06:34;7.50;;;3.45;;
62654;SDS011;48717;55.556;37.816;2024-03-06T03:09:01;9.75;;;3.40;;
62654;SDS011;48717;55.556;37.816;2024-03-06T03:11:30;7.65;;;3.20;;
62654;SDS011;48717;55.556;37.816;2024-03-06T03:13:59;6.82;;;3.05;;
62654;SDS011;48717;55.556;37.816;2024-03-06T03:16:27;4.82;;;2.72;;
62654;SDS011;48717;55.556;37.816;2024-03-06T03:18:54;6.30;;;2.50;;
62654;SDS011;48717;55.556;37.816;2024-03-06T03:21:22;8.93;;;3.50;;
62654;SDS011;48717;55.556;37.816;2024-03-06T03:23:49;8.02;;;2.95;;
62654;SDS011;48717;55.556;37.816;2024-03-06T03:26:16;11.48;;;3.30;;
62654;SDS011;48717;55.556;37.816;2024-03-06T03:28:44;7.68;;;3.60;;
62654;SDS011;48717;55.556;37.816;2024-03-06T03:31:12;9.15;;;3.13;;
62654;SDS011;48717;55.556;37.816;2024-03-06T03:33:39;4.90;;;2.42;;
62654;SDS011;48717;55.556;37.816;2024-03-06T03:36:07;9.30;;;3.70;;
62654;SDS011;48717;55.556;37.816;2024-03-06T03:38:37;11.43;;;3.63;;
62654;SDS011;48717;55.556;37.816;2024-03-06T03:41:12;7.70;;;2.45;;
62654;SDS011;48717;55.556;37.816;2024-03-06T03:43:41;12.77;;;3.40;;
62654;SDS011;48717;55.556;37.816;2024-03-06T03:46:08;8.40;;;3.30;;
62654;SDS011;48717;55.556;37.816;2024-03-06T03:48:36;7.47;;;3.00;;
62654;SDS011;48717;55.556;37.816;2024-03-06T03:51:05;3.47;;;2.25;;
62654;SDS011;48717;55.556;37.816;2024-03-06T03:53:35;13.05;;;2.85;;
62654;SDS011;48717;55.556;37.816;2024-03-06T03:56:02;7.00;;;3.10;;
62654;SDS011;48717;55.556;37.816;2024-03-06T03:58:31;4.60;;;2.10;;
62654;SDS011;48717;55.556;37.816;2024-03-06T04:00:58;16.75;;;3.38;;
62654;SDS011;48717;55.556;37.816;2024-03-06T04:03:26;4.40;;;2.38;;
62654;SDS011;48717;55.556;37.816;2024-03-06T04:05:54;6.80;;;3.40;;
62654;SDS011;48717;55.556;37.816;2024-03-06T04:08:21;8.10;;;3.47;;
62654;SDS011;48717;55.556;37.816;2024-03-06T04:10:48;4.53;;;2.25;;
62654;SDS011;48717;55.556;37.816;2024-03-06T04:13:17;6.25;;;2.65;;
62654;SDS011;48717;55.556;37.816;2024-03-06T04:15:46;3.78;;;2.25;;
62654;SDS011;48717;55.556;37.816;2024-03-06T04:18:14;5.18;;;3.00;;
62654;SDS011;48717;55.556;37.816;2024-03-06T04:20:41;10.85;;;3.42;;
62654;SDS011;48717;55.556;37.816;2024-03-06T04:23:09;4.22;;;2.33;;
62654;SDS011;48717;55.556;37.816;2024-03-06T04:25:37;8.52;;;3.42;;
62654;SDS011;48717;55.556;37.816;2024-03-06T04:30:36;12.00;;;3.53;;
62654;SDS011;48717;55.556;37.816;2024-03-06T04:33:04;8.85;;;3.65;;
62654;SDS011;48717;55.556;37.816;2024-03-06T04:35:32;2.40;;;1.85;;
62654;SDS011;48717;55.556;37.816;2024-03-06T04:38:01;9.45;;;2.88;;
62654;SDS011;48717;55.556;37.816;2024-03-06T04:40:30;10.32;;;3.03;;
62654;SDS011;48717;55.556;37.816;2024-03-06T04:42:58;7.85;;;3.45;;
62654;SDS011;48717;55.556;37.816;2024-03-06T04:45:25;7.57;;;3.33;;
62654;SDS011;48717;55.556;37.816;2024-03-06T04:47:53;7.22;;;3.25;;
62654;SDS011;48717;55.556;37.816;2024-03-06T04:50:20;10.27;;;2.95;;
62654;SDS011;48717;55.556;37.816;2024-03-06T04:52:48;6.00;;;2.65;;
62654;SDS011;48717;55.556;37.816;2024-03-06T04:55:16;4.90;;;2.45;;
62654;SDS011;48717;55.556;37.816;2024-03-06T04:57:48;11.63;;;3.70;;
62654;SDS011;48717;55.556;37.816;2024-03-06T05:00:16;9.43;;;3.83;;
62654;SDS011;48717;55.556;37.816;2024-03-06T05:02:46;8.50;;;4.10;;
62654;SDS011;48717;55.556;37.816;2024-03-06T05:05:33;5.13;;;2.72;;
62654;SDS011;48717;55.556;37.816;2024-03-06T05:08:18;6.55;;;3.25;;
62654;SDS011;48717;55.556;37.816;2024-03-06T05:11:03;7.82;;;2.85;;
62654;SDS011;48717;55.556;37.816;2024-03-06T05:13:48;8.50;;;3.30;;
62654;SDS011;48717;55.556;37.816;2024-03-06T05:16:34;7.38;;;3.30;;
62654;SDS011;48717;55.556;37.816;2024-03-06T05:19:18;10.35;;;4.13;;
62654;SDS011;48717;55.556;37.816;2024-03-06T05:22:05;15.02;;;4.38;;
62654;SDS011;48717;55.556;37.816;2024-03-06T05:24:49;10.35;;;4.40;;
62654;SDS011;48717;55.556;37.816;2024-03-06T05:27:34;9.52;;;4.28;;
62654;SDS011;48717;55.556;37.816;2024-03-06T05:30:19;19.50;;;7.15;;
62654;SDS011;48717;55.556;37.816;2024-03-06T05:33:04;12.05;;;4.60;;
62654;SDS011;48717;55.556;37.816;2024-03-06T05:35:49;10.77;;;4.50;;
62654;SDS011;48717;55.556;37.816;2024-03-06T05:38:37;12.07;;;3.92;;
62654;SDS011;48717;55.556;37.816;2024-03-06T05:41:22;9.50;;;4.18;;
62654;SDS011;48717;55.556;37.816;2024-03-06T05:44:07;9.57;;;4.32;;
62654;SDS011;48717;55.556;37.816;2024-03-06T05:46:52;7.50;;;4.15;;
62654;SDS011;48717;55.556;37.816;2024-03-06T05:49:36;10.68;;;3.70;;
62654;SDS011;48717;55.556;37.816;2024-03-06T05:52:21;6.72;;;3.88;;
62654;SDS011;48717;55.556;37.816;2024-03-06T05:55:07;10.10;;;3.67;;
62654;SDS011;48717;55.556;37.816;2024-03-06T05:57:53;8.43;;;3.88;;
62654;SDS011;48717;55.556;37.816;2024-03-06T06:00:40;9.43;;;4.50;;
62654;SDS011;48717;55.556;37.816;2024-03-06T06:03:08;7.68;;;4.60;;
62654;SDS011;48717;55.556;37.816;2024-03-06T06:05:39;11.05;;;5.28;;
62654;SDS011;48717;55.556;37.816;2024-03-06T06:08:07;12.02;;;5.95;;
62654;SDS011;48717;55.556;37.816;2024-03-06T06:10:35;13.80;;;5.70;;
62654;SDS011;48717;55.556;37.816;2024-03-06T06:13:02;16.20;;;6.10;;
62654;SDS011;48717;55.556;37.816;2024-03-06T06:15:35;12.90;;;5.63;;
62654;SDS011;48717;55.556;37.816;2024-03-06T06:18:02;11.23;;;5.82;;
62654;SDS011;48717;55.556;37.816;2024-03-06T06:20:31;13.63;;;5.32;;
62654;SDS011;48717;55.556;37.816;2024-03-06T06:22:58;15.85;;;5.68;;
62654;SDS011;48717;55.556;37.816;2024-03-06T06:25:26;8.60;;;4.13;;
62654;SDS011;48717;55.556;37.816;2024-03-06T06:27:53;9.00;;;4.97;;
62654;SDS011;48717;55.556;37.816;2024-03-06T06:30:21;11.73;;;4.82;;
62654;SDS011;48717;55.556;37.816;2024-03-06T06:32:48;8.05;;;4.38;;
62654;SDS011;48717;55.556;37.816;2024-03-06T06:35:16;7.45;;;4.20;;
62654;SDS011;48717;55.556;37.816;2024-03-06T06:37:44;10.95;;;4.78;;
62654;SDS011;48717;55.556;37.816;2024-03-06T06:40:12;7.28;;;4.00;;
62654;SDS011;48717;55.556;37.816;2024-03-06T06:42:44;9.38;;;4.47;;
62654;SDS011;48717;55.556;37.816;2024-03-06T06:45:17;9.85;;;4.45;;
62654;SDS011;48717;55.556;37.816;2024-03-06T06:47:45;9.77;;;4.22;;
62654;SDS011;48717;55.556;37.816;2024-03-06T06:50:15;7.95;;;4.45;;
62654;SDS011;48717;55.556;37.816;2024-03-06T06:52:43;7.85;;;4.45;;
62654;SDS011;48717;55.556;37.816;2024-03-06T06:55:10;14.57;;;4.90;;
62654;SDS011;48717;55.556;37.816;2024-03-06T06:57:39;11.60;;;4.78;;
62654;SDS011;48717;55.556;37.816;2024-03-06T07:00:06;11.82;;;5.13;;
62654;SDS011;48717;55.556;37.816;2024-03-06T07:02:40;17.48;;;5.18;;
62654;SDS011;48717;55.556;37.816;2024-03-06T07:05:09;17.83;;;5.40;;
62654;SDS011;48717;55.556;37.816;2024-03-06T07:07:37;14.85;;;6.22;;
62654;SDS011;48717;55.556;37.816;2024-03-06T07:10:05;13.77;;;5.47;;
62654;SDS011;48717;55.556;37.816;2024-03-06T07:12:33;10.25;;;5.00;;
62654;SDS011;48717;55.556;37.816;2024-03-06T07:15:03;13.20;;;4.85;;
62654;SDS011;48717;55.556;37.816;2024-03-06T07:17:32;9.52;;;4.60;;
62654;SDS011;48717;55.556;37.816;2024-03-06T07:20:00;8.77;;;4.90;;
62654;SDS011;48717;55.556;37.816;2024-03-06T07:22:30;11.73;;;4.60;;
62654;SDS011;48717;55.556;37.816;2024-03-06T07:24:57;12.90;;;4.78;;
62654;SDS011;48717;55.556;37.816;2024-03-06T07:27:26;11.63;;;4.22;;
62654;SDS011;48717;55.556;37.816;2024-03-06T07:29:54;8.38;;;4.22;;
62654;SDS011;48717;55.556;37.816;2024-03-06T07:32:22;13.50;;;4.70;;
62654;SDS011;48717;55.556;37.816;2024-03-06T07:34:49;11.45;;;4.65;;
62654;SDS011;48717;55.556;37.816;2024-03-06T07:37:17;15.93;;;5.90;;
62654;SDS011;48717;55.556;37.816;2024-03-06T07:39:45;9.93;;;4.93;;
62654;SDS011;48717;55.556;37.816;2024-03-06T07:42:14;15.52;;;6.10;;
62654;SDS011;48717;55.556;37.816;2024-03-06T07:44:42;16.17;;;5.50;;
62654;SDS011;48717;55.556;37.816;2024-03-06T07:47:10;15.10;;;4.93;;
62654;SDS011;48717;55.556;37.816;2024-03-06T07:49:37;12.45;;;5.00;;
62654;SDS011;48717;55.556;37.816;2024-03-06T07:52:05;11.15;;;6.00;;
62654;SDS011;48717;55.556;37.816;2024-03-06T07:54:32;16.85;;;5.65;;
62654;SDS011;48717;55.556;37.816;2024-03-06T07:57:00;18.13;;;5.40;;
62654;SDS011;48717;55.556;37.816;2024-03-06T07:59:27;18.15;;;5.45;;
62654;SDS011;48717;55.556;37.816;2024-03-06T08:01:55;14.20;;;5.03;;
62654;SDS011;48717;55.556;37.816;2024-03-06T08:04:23;9.40;;;5.28;;
62654;SDS011;48717;55.556;37.816;2024-03-06T08:06:51;15.85;;;5.68;;
62654;SDS011;48717;55.556;37.816;2024-03-06T08:09:19;12.95;;;5.30;;
62654;SDS011;48717;55.556;37.816;2024-03-06T08:11:46;11.30;;;4.97;;
62654;SDS011;48717;55.556;37.816;2024-03-06T08:14:13;11.07;;;5.00;;
62654;SDS011;48717;55.556;37.816;2024-03-06T08:16:41;9.48;;;4.93;;
62654;SDS011;48717;55.556;37.816;2024-03-06T08:19:09;8.98;;;4.38;;
62654;SDS011;48717;55.556;37.816;2024-03-06T08:21:37;14.85;;;5.13;;
62654;SDS011;48717;55.556;37.816;2024-03-06T08:24:05;8.68;;;4.35;;
62654;SDS011;48717;55.556;37.816;2024-03-06T08:26:32;11.57;;;5.35;;
62654;SDS011;48717;55.556;37.816;2024-03-06T08:29:00;13.95;;;4.13;;
62654;SDS011;48717;55.556;37.816;2024-03-06T08:31:27;12.43;;;5.03;;
62654;SDS011;48717;55.556;37.816;2024-03-06T08:33:55;12.95;;;4.65;;
62654;SDS011;48717;55.556;37.816;2024-03-06T08:36:23;9.68;;;4.03;;
62654;SDS011;48717;55.556;37.816;2024-03-06T08:38:51;8.07;;;3.30;;
62654;SDS011;48717;55.556;37.816;2024-03-06T08:41:19;6.82;;;3.42;;
62654;SDS011;48717;55.556;37.816;2024-03-06T08:43:47;6.93;;;3.45;;
62654;SDS011;48717;55.556;37.816;2024-03-06T08:46:15;11.77;;;3.70;;
62654;SDS011;48717;55.556;37.816;2024-03-06T08:48:42;12.75;;;3.90;;
62654;SDS011;48717;55.556;37.816;2024-03-06T08:51:10;13.93;;;4.40;;
62654;SDS011;48717;55.556;37.816;2024-03-06T08:53:38;16.67;;;4.00;;
62654;SDS011;48717;55.556;37.816;2024-03-06T08:56:06;11.82;;;3.70;;
62654;SDS011;48717;55.556;37.816;2024-03-06T08:58:33;8.48;;;4.05;;
62654;SDS011;48717;55.556;37.816;2024-03-06T09:01:01;10.23;;;3.83;;
62654;SDS011;48717;55.556;37.816;2024-03-06T09:03:28;9.15;;;3.72;;
62654;SDS011;48717;55.556;37.816;2024-03-06T09:05:56;9.32;;;3.92;;
62654;SDS011;48717;55.556;37.816;2024-03-06T09:08:23;11.10;;;3.92;;
62654;SDS011;48717;55.556;37.816;2024-03-06T09:10:51;14.63;;;3.88;;
62654;SDS011;48717;55.556;37.816;2024-03-06T09:13:18;8.55;;;2.90;;
62654;SDS011;48717;55.556;37.816;2024-03-06T09:15:45;7.93;;;3.45;;
62654;SDS011;48717;55.556;37.816;2024-03-06T09:18:13;8.15;;;3.42;;
62654;SDS011;48717;55.556;37.816;2024-03-06T09:20:42;12.20;;;3.17;;
62654;SDS011;48717;55.556;37.816;2024-03-06T09:23:10;8.57;;;3.53;;
62654;SDS011;48717;55.556;37.816;2024-03-06T09:25:37;5.90;;;3.42;;
62654;SDS011;48717;55.556;37.816;2024-03-06T09:28:05;8.38;;;4.05;;
62654;SDS011;48717;55.556;37.816;2024-03-06T09:30:35;11.43;;;3.30;;
62654;SDS011;48717;55.556;37.816;2024-03-06T09:33:03;7.50;;;3.78;;
62654;SDS011;48717;55.556;37.816;2024-03-06T09:35:30;8.57;;;3.83;;
62654;SDS011;48717;55.556;37.816;2024-03-06T09:38:00;9.70;;;3.95;;
62654;SDS011;48717;55.556;37.816;2024-03-06T09:40:28;9.52;;;4.30;;
62654;SDS011;48717;55.556;37.816;2024-03-06T09:42:56;9.05;;;3.70;;
62654;SDS011;48717;55.556;37.816;2024-03-06T09:45:23;10.48;;;4.30;;
62654;SDS011;48717;55.556;37.816;2024-03-06T09:47:51;8.38;;;3.60;;
62654;SDS011;48717;55.556;37.816;2024-03-06T09:50:22;9.77;;;3.10;;
62654;SDS011;48717;55.556;37.816;2024-03-06T09:52:55;12.35;;;3.88;;
62654;SDS011;48717;55.556;37.816;2024-03-06T09:55:22;9.02;;;3.13;;
62654;SDS011;48717;55.556;37.816;2024-03-06T09:57:50;5.88;;;2.83;;
62654;SDS011;48717;55.556;37.816;2024-03-06T10:00:18;9.93;;;3.22;;
62654;SDS011;48717;55.556;37.816;2024-03-06T10:02:52;7.57;;;3.60;;
62654;SDS011;48717;55.556;37.816;2024-03-06T10:07:57;6.70;;;3.00;;
62654;SDS011;48717;55.556;37.816;2024-03-06T10:10:26;7.05;;;3.25;;
62654;SDS011;48717;55.556;37.816;2024-03-06T10:12:55;9.10;;;3.30;;
62654;SDS011;48717;55.556;37.816;2024-03-06T10:15:29;6.75;;;3.97;;
62654;SDS011;48717;55.556;37.816;2024-03-06T10:18:12;8.52;;;3.60;;
62654;SDS011;48717;55.556;37.816;2024-03-06T10:20:41;8.60;;;3.60;;
62654;SDS011;48717;55.556;37.816;2024-03-06T10:23:12;9.35;;;3.80;;
62654;SDS011;48717;55.556;37.816;2024-03-06T10:25:39;8.90;;;3.97;;
62654;SDS011;48717;55.556;37.816;2024-03-06T10:28:11;16.92;;;3.83;;
62654;SDS011;48717;55.556;37.816;2024-03-06T10:30:40;6.38;;;3.72;;
62654;SDS011;48717;55.556;37.816;2024-03-06T10:33:13;6.97;;;3.50;;
62654;SDS011;48717;55.556;37.816;2024-03-06T10:35:43;14.27;;;4.17;;
62654;SDS011;48717;55.556;37.816;2024-03-06T10:38:12;8.27;;;3.65;;
62654;SDS011;48717;55.556;37.816;2024-03-06T10:40:41;10.68;;;4.15;;
62654;SDS011;48717;55.556;37.816;2024-03-06T10:43:09;8.88;;;3.95;;
62654;SDS011;48717;55.556;37.816;2024-03-06T10:45:47;9.73;;;4.43;;
62654;SDS011;48717;55.556;37.816;2024-03-06T10:48:17;8.07;;;3.95;;
62654;SDS011;48717;55.556;37.816;2024-03-06T10:50:46;4.82;;;3.10;;
62654;SDS011;48717;55.556;37.816;2024-03-06T10:53:16;6.32;;;3.40;;
62654;SDS011;48717;55.556;37.816;2024-03-06T10:55:50;15.20;;;4.00;;
62654;SDS011;48717;55.556;37.816;2024-03-06T10:58:19;10.43;;;4.10;;
62654;SDS011;48717;55.556;37.816;2024-03-06T11:00:47;9.48;;;4.30;;
62654;SDS011;48717;55.556;37.816;2024-03-06T11:03:17;7.40;;;3.43;;
62654;SDS011;48717;55.556;37.816;2024-03-06T11:05:45;8.30;;;3.47;;
62654;SDS011;48717;55.556;37.816;2024-03-06T11:08:19;7.70;;;3.88;;
62654;SDS011;48717;55.556;37.816;2024-03-06T11:10:48;8.15;;;3.70;;
62654;SDS011;48717;55.556;37.816;2024-03-06T11:23:36;6.25;;;2.55;;
62654;SDS011;48717;55.556;37.816;2024-03-06T11:26:38;8.93;;;2.70;;
62654;SDS011;48717;55.556;37.816;2024-03-06T11:29:11;7.15;;;2.65;;
62654;SDS011;48717;55.556;37.816;2024-03-06T11:31:38;6.43;;;3.22;;
62654;SDS011;48717;55.556;37.816;2024-03-06T11:34:06;5.65;;;3.10;;
62654;SDS011;48717;55.556;37.816;2024-03-06T11:36:34;5.30;;;3.20;;
62654;SDS011;48717;55.556;37.816;2024-03-06T11:39:07;5.10;;;2.80;;
62654;SDS011;48717;55.556;37.816;2024-03-06T11:44:12;5.18;;;3.25;;
62654;SDS011;48717;55.556;37.816;2024-03-06T11:46:44;7.68;;;3.50;;
62654;SDS011;48717;55.556;37.816;2024-03-06T11:49:18;10.00;;;4.00;;
62654;SDS011;48717;55.556;37.816;2024-03-06T11:51:53;8.10;;;3.55;;
62654;SDS011;48717;55.556;37.816;2024-03-06T11:54:23;11.73;;;4.13;;
62654;SDS011;48717;55.556;37.816;2024-03-06T11:59:23;5.78;;;3.30;;
62654;SDS011;48717;55.556;37.816;2024-03-06T12:01:52;7.97;;;3.67;;
62654;SDS011;48717;55.556;37.816;2024-03-06T12:04:21;8.00;;;3.80;;
62654;SDS011;48717;55.556;37.816;2024-03-06T12:06:49;9.25;;;3.72;;
62654;SDS011;48717;55.556;37.816;2024-03-06T12:09:18;7.53;;;3.25;;
62654;SDS011;48717;55.556;37.816;2024-03-06T12:11:45;14.60;;;4.20;;
62654;SDS011;48717;55.556;37.816;2024-03-06T12:14:17;10.27;;;3.63;;
62654;SDS011;48717;55.556;37.816;2024-03-06T12:16:58;8.25;;;3.50;;
62654;SDS011;48717;55.556;37.816;2024-03-06T12:19:32;7.10;;;3.72;;
62654;SDS011;48717;55.556;37.816;2024-03-06T12:22:01;10.45;;;4.25;;
62654;SDS011;48717;55.556;37.816;2024-03-06T12:24:32;17.35;;;6.30;;
62654;SDS011;48717;55.556;37.816;2024-03-06T12:27:01;18.70;;;6.95;;
62654;SDS011;48717;55.556;37.816;2024-03-06T12:29:31;14.93;;;6.07;;
62654;SDS011;48717;55.556;37.816;2024-03-06T12:32:00;10.70;;;5.43;;
62654;SDS011;48717;55.556;37.816;2024-03-06T12:34:29;10.30;;;4.70;;
62654;SDS011;48717;55.556;37.816;2024-03-06T12:37:16;12.88;;;4.10;;
62654;SDS011;48717;55.556;37.816;2024-03-06T12:39:45;6.38;;;3.47;;
62654;SDS011;48717;55.556;37.816;2024-03-06T12:42:12;10.40;;;4.30;;
62654;SDS011;48717;55.556;37.816;2024-03-06T12:44:40;10.05;;;3.67;;
62654;SDS011;48717;55.556;37.816;2024-03-06T12:47:08;11.35;;;3.97;;
62654;SDS011;48717;55.556;37.816;2024-03-06T12:49:35;10.27;;;4.25;;
62654;SDS011;48717;55.556;37.816;2024-03-06T12:52:02;7.15;;;3.47;;
62654;SDS011;48717;55.556;37.816;2024-03-06T12:54:32;8.98;;;3.70;;
62654;SDS011;48717;55.556;37.816;2024-03-06T12:56:59;11.35;;;3.60;;
62654;SDS011;48717;55.556;37.816;2024-03-06T12:59:27;10.55;;;4.20;;
62654;SDS011;48717;55.556;37.816;2024-03-06T13:01:54;8.00;;;4.05;;
62654;SDS011;48717;55.556;37.816;2024-03-06T13:04:22;10.40;;;4.05;;
62654;SDS011;48717;55.556;37.816;2024-03-06T13:06:49;11.10;;;3.53;;
62654;SDS011;48717;55.556;37.816;2024-03-06T13:09:16;10.02;;;4.15;;
62654;SDS011;48717;55.556;37.816;2024-03-06T13:11:44;12.45;;;3.53;;
62654;SDS011;48717;55.556;37.816;2024-03-06T13:14:11;14.13;;;4.65;;
62654;SDS011;48717;55.556;37.816;2024-03-06T13:16:40;9.90;;;3.80;;
62654;SDS011;48717;55.556;37.816;2024-03-06T13:19:07;9.98;;;4.22;;
62654;SDS011;48717;55.556;37.816;2024-03-06T13:21:35;11.55;;;5.25;;
62654;SDS011;48717;55.556;37.816;2024-03-06T13:24:02;6.30;;;3.33;;
62654;SDS011;48717;55.556;37.816;2024-03-06T13:26:30;12.52;;;3.28;;
62654;SDS011;48717;55.556;37.816;2024-03-06T13:28:58;9.15;;;3.92;;
62654;SDS011;48717;55.556;37.816;2024-03-06T13:31:27;12.60;;;4.68;;
62654;SDS011;48717;55.556;37.816;2024-03-06T13:33:54;10.70;;;3.30;;
62654;SDS011;48717;55.556;37.816;2024-03-06T13:36:22;8.45;;;3.00;;
62654;SDS011;48717;55.556;37.816;2024-03-06T13:38:49;11.32;;;3.33;;
62654;SDS011;48717;55.556;37.816;2024-03-06T13:41:17;10.15;;;3.13;;
62654;SDS011;48717;55.556;37.816;2024-03-06T13:43:45;9.57;;;3.70;;
62654;SDS011;48717;55.556;37.816;2024-03-06T13:46:12;16.83;;;4.05;;
62654;SDS011;48717;55.556;37.816;2024-03-06T13:48:40;8.02;;;3.42;;
62654;SDS011;48717;55.556;37.816;2024-03-06T13:51:07;15.55;;;3.75;;
62654;SDS011;48717;55.556;37.816;2024-03-06T13:53:35;10.13;;;3.17;;
62654;SDS011;48717;55.556;37.816;2024-03-06T13:56:03;8.25;;;3.55;;
62654;SDS011;48717;55.556;37.816;2024-03-06T13:58:31;7.85;;;3.22;;
62654;SDS011;48717;55.556;37.816;2024-03-06T14:00:58;7.30;;;3.40;;
62654;SDS011;48717;55.556;37.816;2024-03-06T14:03:26;13.55;;;3.75;;
62654;SDS011;48717;55.556;37.816;2024-03-06T14:05:54;10.13;;;3.88;;
62654;SDS011;48717;55.556;37.816;2024-03-06T14:08:22;11.85;;;3.50;;
62654;SDS011;48717;55.556;37.816;2024-03-06T14:10:50;11.45;;;4.30;;
62654;SDS011;48717;55.556;37.816;2024-03-06T14:13:18;12.05;;;3.40;;
62654;SDS011;48717;55.556;37.816;2024-03-06T14:15:45;8.77;;;3.90;;
62654;SDS011;48717;55.556;37.816;2024-03-06T14:18:14;13.57;;;3.80;;
62654;SDS011;48717;55.556;37.816;2024-03-06T14:20:42;12.80;;;3.67;;
62654;SDS011;48717;55.556;37.816;2024-03-06T14:23:09;7.93;;;3.90;;
62654;SDS011;48717;55.556;37.816;2024-03-06T14:25:37;16.08;;;6.00;;
62654;SDS011;48717;55.556;37.816;2024-03-06T14:28:05;15.32;;;4.88;;
62654;SDS011;48717;55.556;37.816;2024-03-06T14:30:32;12.23;;;4.72;;
62654;SDS011;48717;55.556;37.816;2024-03-06T14:33:01;9.10;;;4.40;;
62654;SDS011;48717;55.556;37.816;2024-03-06T14:35:28;12.02;;;4.07;;
62654;SDS011;48717;55.556;37.816;2024-03-06T14:37:55;10.85;;;4.80;;
62654;SDS011;48717;55.556;37.816;2024-03-06T14:40:23;12.82;;;4.03;;
62654;SDS011;48717;55.556;37.816;2024-03-06T14:42:50;10.80;;;4.28;;
62654;SDS011;48717;55.556;37.816;2024-03-06T14:45:21;9.88;;;4.15;;
62654;SDS011;48717;55.556;37.816;2024-03-06T14:47:48;12.05;;;4.20;;
62654;SDS011;48717;55.556;37.816;2024-03-06T14:50:16;10.35;;;4.55;;
62654;SDS011;48717;55.556;37.816;2024-03-06T14:52:43;13.10;;;4.55;;
62654;SDS011;48717;55.556;37.816;2024-03-06T14:55:11;12.13;;;4.88;;
62654;SDS011;48717;55.556;37.816;2024-03-06T14:57:39;12.57;;;4.70;;
62654;SDS011;48717;55.556;37.816;2024-03-06T15:00:06;11.98;;;4.60;;
62654;SDS011;48717;55.556;37.816;2024-03-06T15:02:35;11.07;;;3.85;;